createdAt,value
2023-03-28T00:01:21.582Z,100747.03
2023-03-28T00:03:49.073Z,100745.84
2023-03-28T00:06:18.271Z,100744.53
2023-03-28T00:11:44.902Z,100752.94
2023-03-28T00:14:15.234Z,100752.22
2023-03-28T00:16:45.444Z,100759.03
2023-03-28T00:19:15.367Z,100759.25
2023-03-28T00:21:46.714Z,100762.19
2023-03-28T00:27:17.708Z,100754.69
2023-03-28T00:29:46.494Z,100757.88
2023-03-28T00:32:13.934Z,100762.28
2023-03-28T00:34:41.474Z,100759.63
2023-03-28T00:37:10.660Z,100766.31
2023-03-28T00:39:39.933Z,100770.44
2023-03-28T00:42:07.387Z,100767.44
2023-03-28T00:44:51.670Z,100778.56
2023-03-28T00:47:36.598Z,100774.28
2023-03-28T00:50:07.049Z,100775.47
2023-03-28T00:53:01.715Z,100771.69
2023-03-28T00:55:32.144Z,100775.03
2023-03-28T00:57:59.738Z,100774.72
2023-03-28T01:00:30.780Z,100772.03
2023-03-28T01:03:01.548Z,100770.53
2023-03-28T01:05:32.501Z,100771.09
2023-03-28T01:08:05.013Z,100777.41
2023-03-28T01:13:37.692Z,100782.41
2023-03-28T01:16:08.671Z,100780.56
2023-03-28T01:18:41.186Z,100779.09
2023-03-28T01:21:25.091Z,100789.78
2023-03-28T01:24:43.376Z,100788.41
2023-03-28T01:27:15.835Z,100783.72
2023-03-28T01:30:04.900Z,100787.75
2023-03-28T01:33:07.546Z,100786.41
2023-03-28T01:35:55.327Z,100789.31
2023-03-28T01:38:27.597Z,100791.69
2023-03-28T01:41:03.521Z,100793.59
2023-03-28T01:43:44.712Z,100800.06
2023-03-28T01:46:15.774Z,100802.84
2023-03-28T01:48:55.704Z,100795.56
2023-03-28T01:51:25.974Z,100798.50
2023-03-28T01:54:01.579Z,100789.41
2023-03-28T01:56:34.237Z,100791.22
2023-03-28T01:59:08.313Z,100801.06
2023-03-28T02:01:59.484Z,100790.94
2023-03-28T02:04:29.327Z,100794.63
2023-03-28T02:10:04.951Z,100793.00
2023-03-28T02:15:59.286Z,100791.00
2023-03-28T02:18:49.022Z,100792.94
2023-03-28T02:24:37.746Z,100797.00
2023-03-28T02:27:14.489Z,100789.03
2023-03-28T02:29:51.022Z,100795.75
2023-03-28T02:32:37.602Z,100786.31
2023-03-28T02:37:50.581Z,100782.06
2023-03-28T02:43:49.315Z,100790.22
2023-03-28T02:49:49.525Z,100789.44
2023-03-28T02:52:24.435Z,100784.81
2023-03-28T02:54:53.860Z,100791.25
2023-03-28T02:57:32.859Z,100792.53
2023-03-28T03:03:03.897Z,100797.22
2023-03-28T03:05:31.397Z,100791.34
2023-03-28T03:07:58.800Z,100794.72
2023-03-28T03:10:26.641Z,100794.13
2023-03-28T03:12:54.434Z,100796.59
2023-03-28T03:15:22.222Z,100803.28
2023-03-28T03:20:41.003Z,100781.78
2023-03-28T03:23:09.543Z,100779.81
2023-03-28T03:25:37.192Z,100796.41
2023-03-28T03:31:15.204Z,100788.41
2023-03-28T03:37:05.596Z,100799.66
2023-03-28T03:39:33.763Z,100798.63
2023-03-28T03:42:01.367Z,100797.13
2023-03-28T03:44:31.727Z,100800.84
2023-03-28T03:46:59.619Z,100798.66
2023-03-28T03:49:29.155Z,100801.47
2023-03-28T03:51:57.858Z,100805.22
2023-03-28T03:57:26.093Z,100800.56
2023-03-28T03:59:59.885Z,100802.72
2023-03-28T04:02:29.049Z,100806.38
2023-03-28T04:05:01.037Z,100796.94
2023-03-28T04:07:43.743Z,100800.59
2023-03-28T04:10:20.753Z,100813.88
2023-03-28T04:12:49.564Z,100810.69
2023-03-28T04:18:20.440Z,100812.25
2023-03-28T04:20:53.674Z,100816.28
2023-03-28T04:23:43.422Z,100819.28
2023-03-28T04:26:27.586Z,100826.78
2023-03-28T04:32:00.425Z,100833.91
2023-03-28T04:37:53.712Z,100832.69
2023-03-28T04:40:22.318Z,100835.97
2023-03-28T04:43:16.023Z,100841.06
2023-03-28T04:48:56.826Z,100852.50
2023-03-28T04:51:28.509Z,100851.56
2023-03-28T04:53:55.995Z,100850.06
2023-03-28T04:56:45.397Z,100849.41
2023-03-28T04:59:16.796Z,100847.16
2023-03-28T05:01:49.078Z,100851.19
2023-03-28T05:04:35.799Z,100856.63
2023-03-28T05:07:05.858Z,100863.94
2023-03-28T05:09:34.446Z,100864.59
2023-03-28T05:12:01.884Z,100870.56
2023-03-28T05:14:32.021Z,100874.78
2023-03-28T05:20:24.065Z,100876.66
2023-03-28T05:22:55.874Z,100883.97
2023-03-28T05:25:24.325Z,100889.75
2023-03-28T05:27:52.242Z,100898.44
2023-03-28T05:30:41.759Z,100890.31
2023-03-28T05:33:09.316Z,100901.78
2023-03-28T05:35:39.078Z,100903.22
2023-03-28T05:38:06.563Z,100890.59
2023-03-28T05:40:33.991Z,100902.75
2023-03-28T05:45:59.814Z,100909.56
2023-03-28T05:48:34.095Z,100907.59
2023-03-28T05:51:02.856Z,100909.03
2023-03-28T05:53:30.320Z,100911.53
2023-03-28T05:58:56.775Z,100918.91
2023-03-28T06:01:27.679Z,100921.84
2023-03-28T06:03:57.328Z,100926.88
2023-03-28T06:06:27.448Z,100926.41
2023-03-28T06:11:54.269Z,100929.66
2023-03-28T06:14:21.800Z,100926.41
2023-03-28T06:19:52.870Z,100927.06
2023-03-28T06:22:22.313Z,100930.00
2023-03-28T06:24:55.257Z,100932.31
2023-03-28T06:27:27.936Z,100938.66
2023-03-28T06:29:55.946Z,100938.97
2023-03-28T06:32:24.097Z,100950.75
2023-03-28T06:34:51.523Z,100939.88
2023-03-28T06:37:19.692Z,100944.59
2023-03-28T06:39:57.346Z,100956.03
2023-03-28T06:42:46.855Z,100940.69
2023-03-28T06:45:23.689Z,100927.50
2023-03-28T06:51:15.822Z,100934.44
2023-03-28T06:53:45.854Z,100932.44
2023-03-28T06:56:15.607Z,100933.56
2023-03-28T07:01:31.809Z,100930.03
2023-03-28T07:04:13.098Z,100936.31
2023-03-28T07:09:18.178Z,100947.28
2023-03-28T07:11:52.276Z,100943.19
2023-03-28T07:14:19.910Z,100941.19
2023-03-28T07:16:47.454Z,100934.41
2023-03-28T07:19:20.532Z,100942.75
2023-03-28T07:21:48.870Z,100945.97
2023-03-28T07:27:20.112Z,100938.59
2023-03-28T07:29:47.606Z,100949.81
2023-03-28T07:32:15.692Z,100956.44
2023-03-28T07:34:45.747Z,100964.50
2023-03-28T07:37:18.911Z,100965.16
2023-03-28T07:43:07.091Z,100964.41
2023-03-28T07:45:34.530Z,100966.03
2023-03-28T07:48:02.130Z,100962.44
2023-03-28T07:50:29.687Z,100968.13
2023-03-28T07:52:59.074Z,100965.94
2023-03-28T07:58:33.507Z,100973.25
2023-03-28T08:01:07.306Z,100984.09
2023-03-28T08:03:43.419Z,100981.25
2023-03-28T08:08:54.219Z,100979.09
2023-03-28T08:11:29.056Z,100981.91
2023-03-28T08:16:56.113Z,100977.50
2023-03-28T08:19:23.665Z,100986.34
2023-03-28T08:22:20.625Z,100991.50
2023-03-28T08:24:54.748Z,100991.53
2023-03-28T08:27:23.902Z,100994.78
2023-03-28T08:32:55.177Z,100999.00
2023-03-28T08:35:23.160Z,101001.78
2023-03-28T08:37:54.314Z,101009.03
2023-03-28T08:43:48.643Z,101011.66
2023-03-28T08:46:19.099Z,101009.38
2023-03-28T08:48:49.588Z,101009.28
2023-03-28T08:51:21.444Z,101010.16
2023-03-28T08:56:53.263Z,101015.19
2023-03-28T08:59:24.780Z,101012.91
2023-03-28T09:01:52.403Z,101008.19
2023-03-28T09:04:28.470Z,101004.13
2023-03-28T09:07:15.654Z,101008.91
2023-03-28T09:09:48.913Z,101008.84
2023-03-28T09:15:53.727Z,100999.34
2023-03-28T09:18:32.842Z,100993.81
2023-03-28T09:24:21.941Z,100992.47
2023-03-28T09:27:16.354Z,100988.06
2023-03-28T09:29:45.119Z,100983.97
2023-03-28T09:32:18.961Z,100987.47
2023-03-28T09:35:06.872Z,100986.41
2023-03-28T09:37:39.339Z,100992.03
2023-03-28T09:43:16.825Z,100990.91
2023-03-28T09:46:00.249Z,100990.16
2023-03-28T09:49:03.035Z,100995.44
2023-03-28T09:51:33.428Z,100995.88
2023-03-28T09:54:05.663Z,100994.50
2023-03-28T09:56:35.948Z,100977.91
2023-03-28T10:02:28.279Z,100985.47
2023-03-28T10:04:58.253Z,100990.22
2023-03-28T10:07:34.829Z,100983.72
2023-03-28T10:10:41.078Z,100979.72
2023-03-28T10:16:13.113Z,100979.06
2023-03-28T10:18:44.885Z,100971.44
2023-03-28T10:21:32.820Z,100972.59
2023-03-28T10:24:07.957Z,100971.22
2023-03-28T10:26:37.076Z,100981.31
2023-03-28T10:32:05.888Z,100977.63
2023-03-28T10:34:42.109Z,100977.09
2023-03-28T10:37:26.254Z,100971.38
2023-03-28T10:40:25.230Z,100976.69
2023-03-28T10:43:13.027Z,100985.31
2023-03-28T10:46:15.360Z,100965.34
2023-03-28T10:49:05.680Z,100973.47
2023-03-28T10:51:38.356Z,100970.13
2023-03-28T10:54:21.751Z,100964.13
2023-03-28T10:56:53.570Z,100964.56
2023-03-28T10:59:47.534Z,100964.78
2023-03-28T11:02:30.209Z,100956.97
2023-03-28T11:05:00.536Z,100957.13
2023-03-28T11:07:34.189Z,100948.41
2023-03-28T11:10:16.843Z,100950.28
2023-03-28T11:15:58.371Z,100948.63
2023-03-28T11:21:38.158Z,100952.25
2023-03-28T11:24:25.730Z,100948.59
2023-03-28T11:30:22.009Z,100946.94
2023-03-28T11:33:15.282Z,100934.91
2023-03-28T11:35:45.620Z,100945.53
2023-03-28T11:38:15.723Z,100936.84
2023-03-28T11:40:51.852Z,100941.59
2023-03-28T11:43:29.073Z,100943.44
2023-03-28T11:48:57.274Z,100943.16
2023-03-28T11:51:31.773Z,100946.13
2023-03-28T11:54:04.574Z,100934.94
2023-03-28T11:59:44.202Z,100927.97
2023-03-28T12:02:20.272Z,100917.47
2023-03-28T12:04:51.181Z,100916.88
2023-03-28T12:07:21.046Z,100916.53
2023-03-28T12:09:59.857Z,100909.03
2023-03-28T12:12:31.023Z,100899.84
2023-03-28T12:15:02.247Z,100902.16
2023-03-28T12:17:41.815Z,100901.94
2023-03-28T12:20:15.736Z,100898.06
2023-03-28T12:25:45.782Z,100889.44
2023-03-28T12:28:20.571Z,100881.69
2023-03-28T12:30:58.749Z,100880.38
2023-03-28T12:33:34.211Z,100864.47
2023-03-28T12:36:17.826Z,100875.38
2023-03-28T12:38:49.824Z,100876.50
2023-03-28T12:41:25.918Z,100867.38
2023-03-28T12:43:56.895Z,100860.19
2023-03-28T12:46:35.327Z,100860.22
2023-03-28T12:49:05.715Z,100851.03
2023-03-28T12:54:29.732Z,100838.63
2023-03-28T12:57:04.769Z,100834.75
2023-03-28T12:59:44.759Z,100837.56
2023-03-28T13:02:26.914Z,100839.22
2023-03-28T13:07:58.591Z,100836.91
2023-03-28T13:10:33.286Z,100832.25
2023-03-28T13:13:09.503Z,100833.84
2023-03-28T13:15:51.534Z,100833.25
2023-03-28T13:18:43.410Z,100824.13
2023-03-28T13:21:12.420Z,100814.50
2023-03-28T13:23:47.529Z,100817.66
2023-03-28T13:26:17.227Z,100807.63
2023-03-28T13:28:46.164Z,100809.38
2023-03-28T13:31:21.032Z,100797.19
2023-03-28T13:33:49.614Z,100803.91
2023-03-28T13:36:27.544Z,100804.97
2023-03-28T13:39:32.677Z,100804.63
2023-03-28T13:42:01.241Z,100798.78
2023-03-28T13:47:35.994Z,100796.22
2023-03-28T13:50:06.604Z,100791.13
2023-03-28T13:55:39.085Z,100781.34
2023-03-28T13:58:06.580Z,100787.72
2023-03-28T14:00:34.085Z,100780.78
2023-03-28T14:06:13.064Z,100775.28
2023-03-28T14:08:46.259Z,100768.91
2023-03-28T14:11:17.331Z,100765.75
2023-03-28T14:13:45.199Z,100752.28
2023-03-28T14:16:12.702Z,100750.75
2023-03-28T14:18:42.800Z,100741.13
2023-03-28T14:21:10.388Z,100740.25
2023-03-28T14:23:39.157Z,100736.72
2023-03-28T14:29:14.586Z,100713.25
2023-03-28T14:31:46.050Z,100715.88
2023-03-28T14:34:18.010Z,100719.03
2023-03-28T14:36:59.247Z,100701.03
2023-03-28T14:42:28.328Z,100694.94
2023-03-28T14:44:57.318Z,100703.69
2023-03-28T14:47:28.211Z,100699.03
2023-03-28T14:49:56.550Z,100687.78
2023-03-28T14:52:27.611Z,100689.03
2023-03-28T14:54:55.156Z,100680.78
2023-03-28T14:57:22.717Z,100675.88
2023-03-28T14:59:51.491Z,100671.00
2023-03-28T15:02:24.977Z,100672.47
2023-03-28T15:07:57.651Z,100669.72
2023-03-28T15:10:26.222Z,100662.41
2023-03-28T15:13:02.962Z,100658.25
2023-03-28T15:15:32.274Z,100653.59
2023-03-28T15:20:58.478Z,100654.09
2023-03-28T15:26:22.288Z,100640.59
2023-03-28T15:28:50.132Z,100623.44
2023-03-28T15:31:18.004Z,100623.28
2023-03-28T15:33:47.402Z,100621.91
2023-03-28T15:36:18.862Z,100615.75
2023-03-28T15:38:50.412Z,100610.53
2023-03-28T15:44:26.342Z,100610.72
2023-03-28T15:46:54.506Z,100610.84
2023-03-28T15:49:21.931Z,100604.91
2023-03-28T15:51:53.965Z,100602.69
2023-03-28T15:54:30.848Z,100601.09
2023-03-28T15:57:02.360Z,100596.63
2023-03-28T15:59:34.263Z,100596.81
2023-03-28T16:02:29.426Z,100590.81
2023-03-28T16:05:01.517Z,100589.16
2023-03-28T16:07:35.941Z,100581.13
2023-03-28T16:10:03.502Z,100574.31
2023-03-28T16:12:34.101Z,100569.81
2023-03-28T16:15:27.056Z,100570.53
2023-03-28T16:18:00.382Z,100574.97
2023-03-28T16:20:37.479Z,100570.50
2023-03-28T16:25:55.080Z,100563.84
2023-03-28T16:28:22.529Z,100551.72
2023-03-28T16:30:50.122Z,100550.53
2023-03-28T16:33:17.588Z,100551.00
2023-03-28T16:38:44.954Z,100553.72
2023-03-28T16:41:13.932Z,100557.63
2023-03-28T16:43:41.705Z,100549.91
2023-03-28T16:46:11.118Z,100547.16
2023-03-28T16:48:39.860Z,100541.97
2023-03-28T16:51:08.060Z,100533.16
2023-03-28T16:53:37.092Z,100525.78
2023-03-28T16:59:08.222Z,100526.94
2023-03-28T17:01:35.811Z,100518.63
2023-03-28T17:04:03.811Z,100513.38
2023-03-28T17:06:31.365Z,100514.38
2023-03-28T17:11:47.795Z,100513.06
2023-03-28T17:14:16.722Z,100510.72
2023-03-28T17:16:45.723Z,100495.28
2023-03-28T17:19:13.302Z,100497.91
2023-03-28T17:24:40.038Z,100496.22
2023-03-28T17:27:07.683Z,100500.88
2023-03-28T17:29:37.052Z,100505.03
2023-03-28T17:32:04.881Z,100498.97
2023-03-28T17:37:30.802Z,100508.69
2023-03-28T17:39:58.292Z,100499.75
2023-03-28T17:42:25.953Z,100500.28
2023-03-28T17:44:55.445Z,100500.97
2023-03-28T17:47:24.129Z,100498.63
2023-03-28T17:49:52.154Z,100489.94
2023-03-28T17:55:22.101Z,100492.63
2023-03-28T17:57:49.543Z,100488.56
2023-03-28T18:00:19.342Z,100502.28
2023-03-28T18:02:47.158Z,100493.91
2023-03-28T18:05:45.607Z,100500.22
2023-03-28T18:08:13.018Z,100488.22
2023-03-28T18:10:41.275Z,100488.97
2023-03-28T18:13:08.875Z,100486.09
2023-03-28T18:18:26.319Z,100478.78
2023-03-28T18:20:54.118Z,100476.16
2023-03-28T18:23:21.991Z,100477.63
2023-03-28T18:28:49.819Z,100482.25
2023-03-28T18:31:19.767Z,100480.50
2023-03-28T18:36:40.357Z,100483.34
2023-03-28T18:39:08.151Z,100492.38
2023-03-28T18:41:35.635Z,100486.66
2023-03-28T18:44:03.405Z,100485.00
2023-03-28T18:49:30.744Z,100478.16
2023-03-28T18:52:04.129Z,100471.38
2023-03-28T18:54:32.271Z,100465.75
2023-03-28T18:57:00.205Z,100469.53
2023-03-28T19:02:26.395Z,100468.53
2023-03-28T19:04:54.003Z,100465.13
2023-03-28T19:07:22.799Z,100456.88
2023-03-28T19:09:53.466Z,100453.31
2023-03-28T19:12:20.975Z,100455.63
2023-03-28T19:14:50.003Z,100441.63
2023-03-28T19:17:17.538Z,100435.31
2023-03-28T19:19:45.066Z,100441.75
2023-03-28T19:22:12.539Z,100439.56
2023-03-28T19:24:41.606Z,100436.25
2023-03-28T19:27:12.815Z,100432.66
2023-03-28T19:29:40.394Z,100434.19
2023-03-28T19:32:08.184Z,100430.03
2023-03-28T19:34:35.848Z,100426.97
2023-03-28T19:37:03.324Z,100426.16
2023-03-28T19:39:30.715Z,100423.22
2023-03-28T19:42:00.156Z,100422.53
2023-03-28T19:47:29.770Z,100405.16
2023-03-28T19:49:57.211Z,100398.75
2023-03-28T19:52:24.893Z,100395.69
2023-03-28T19:54:52.325Z,100401.38
2023-03-28T19:57:21.133Z,100399.25
2023-03-28T20:02:41.841Z,100389.81
2023-03-28T20:05:10.399Z,100384.50
2023-03-28T20:07:37.834Z,100386.31
2023-03-28T20:10:06.072Z,100382.84
2023-03-28T20:15:33.605Z,100381.03
2023-03-28T20:18:02.244Z,100372.81
2023-03-28T20:20:29.676Z,100377.38
2023-03-28T20:22:58.011Z,100370.28
2023-03-28T20:25:26.034Z,100366.69
2023-03-28T20:27:53.459Z,100364.31
2023-03-28T20:30:22.638Z,100365.06
2023-03-28T20:32:51.904Z,100359.97
2023-03-28T20:35:19.386Z,100359.88
2023-03-28T20:37:47.086Z,100356.50
2023-03-28T20:40:14.557Z,100352.63
2023-03-28T20:42:42.237Z,100354.31
2023-03-28T20:48:16.162Z,100352.06
2023-03-28T20:50:47.185Z,100350.03
2023-03-28T20:53:14.673Z,100352.34
2023-03-28T20:55:43.237Z,100351.66
2023-03-28T20:58:10.725Z,100348.06
2023-03-28T21:00:39.722Z,100339.97
2023-03-28T21:03:11.229Z,100340.13
2023-03-28T21:08:38.113Z,100329.84
2023-03-28T21:11:08.317Z,100333.44
2023-03-28T21:13:35.763Z,100329.69
2023-03-28T21:16:28.702Z,100326.63
2023-03-28T21:18:56.390Z,100334.13
2023-03-28T21:21:24.156Z,100320.38
2023-03-28T21:23:53.260Z,100321.38
2023-03-28T21:26:22.488Z,100322.75
2023-03-28T21:28:52.182Z,100310.94
2023-03-28T21:31:21.349Z,100322.75
2023-03-28T21:33:49.758Z,100327.94
2023-03-28T21:36:19.497Z,100324.84
2023-03-28T21:38:48.488Z,100328.22
2023-03-28T21:41:17.425Z,100327.94
2023-03-28T21:46:44.778Z,100328.59
2023-03-28T21:49:12.471Z,100322.09
2023-03-28T21:51:39.966Z,100321.50
2023-03-28T21:54:07.438Z,100317.75
2023-03-28T21:59:26.180Z,100315.50
2023-03-28T22:01:53.681Z,100314.16
2023-03-28T22:04:21.795Z,100308.34
2023-03-28T22:06:49.280Z,100314.19
2023-03-28T22:09:16.677Z,100320.84
2023-03-28T22:11:44.529Z,100316.63
2023-03-28T22:14:12.708Z,100318.59
2023-03-28T22:16:41.689Z,100314.31
2023-03-28T22:19:09.724Z,100316.81
2023-03-28T22:21:37.827Z,100309.59
2023-03-28T22:24:10.358Z,100307.25
2023-03-28T22:26:37.823Z,100311.78
2023-03-28T22:29:05.996Z,100314.72
2023-03-28T22:31:33.858Z,100311.81
2023-03-28T22:37:01.299Z,100317.47
2023-03-28T22:39:28.748Z,100315.00
2023-03-28T22:44:44.807Z,100314.03
2023-03-28T22:47:12.326Z,100311.63
2023-03-28T22:49:40.074Z,100312.19
2023-03-28T22:52:08.915Z,100310.72
2023-03-28T22:57:34.778Z,100307.78
2023-03-28T23:00:03.213Z,100312.63
2023-03-28T23:02:30.913Z,100315.72
2023-03-28T23:04:58.543Z,100309.75
2023-03-28T23:07:27.556Z,100310.72
2023-03-28T23:09:55.733Z,100307.25
2023-03-28T23:12:23.192Z,100308.53
2023-03-28T23:14:50.853Z,100310.84
2023-03-28T23:17:18.927Z,100306.13
2023-03-28T23:19:48.225Z,100307.97
2023-03-28T23:22:17.409Z,100308.88
2023-03-28T23:24:46.834Z,100299.56
2023-03-28T23:30:14.500Z,100299.88
2023-03-28T23:32:42.309Z,100298.19
2023-03-28T23:35:11.556Z,100290.28
2023-03-28T23:37:39.390Z,100306.13
2023-03-28T23:40:14.100Z,100289.59
2023-03-28T23:42:43.587Z,100295.16
2023-03-28T23:45:12.036Z,100290.44
2023-03-28T23:47:39.752Z,100286.94
2023-03-28T23:52:58.252Z,100287.91
2023-03-28T23:55:27.076Z,100286.41
2023-03-28T23:57:55.813Z,100278.09
